sensor_id;sensor_type;location;lat;lon;timestamp;temperature;humidity
4374;DHT22;2201;51.100;6.814;2024-03-17T00:00:49;6.90;98.20
4374;DHT22;2201;51.100;6.814;2024-03-17T00:03:16;6.90;98.20
4374;DHT22;2201;51.100;6.814;2024-03-17T00:05:41;6.90;98.20
4374;DHT22;2201;51.100;6.814;2024-03-17T00:08:08;6.90;98.20
4374;DHT22;2201;51.100;6.814;2024-03-17T00:10:35;6.90;98.20
4374;DHT22;2201;51.100;6.814;2024-03-17T00:13:02;6.90;98.20
4374;DHT22;2201;51.100;6.814;2024-03-17T00:15:28;6.90;98.20
4374;DHT22;2201;51.100;6.814;2024-03-17T00:17:56;6.90;98.20
4374;DHT22;2201;51.100;6.814;2024-03-17T00:20:22;6.90;98.20
4374;DHT22;2201;51.100;6.814;2024-03-17T00:22:50;6.90;98.20
4374;DHT22;2201;51.100;6.814;2024-03-17T00:25:16;6.80;98.20
4374;DHT22;2201;51.100;6.814;2024-03-17T00:27:43;6.80;98.20
4374;DHT22;2201;51.100;6.814;2024-03-17T00:30:11;6.80;98.20
4374;DHT22;2201;51.100;6.814;2024-03-17T00:32:39;6.80;98.20
4374;DHT22;2201;51.100;6.814;2024-03-17T00:35:07;6.80;98.20
4374;DHT22;2201;51.100;6.814;2024-03-17T00:37:36;6.80;98.20
4374;DHT22;2201;51.100;6.814;2024-03-17T00:40:02;6.80;98.20
4374;DHT22;2201;51.100;6.814;2024-03-17T00:42:30;6.70;98.20
4374;DHT22;2201;51.100;6.814;2024-03-17T00:44:56;6.70;98.20
4374;DHT22;2201;51.100;6.814;2024-03-17T00:47:25;6.70;98.20
4374;DHT22;2201;51.100;6.814;2024-03-17T00:49:51;6.70;98.20
4374;DHT22;2201;51.100;6.814;2024-03-17T00:52:19;6.70;98.20
4374;DHT22;2201;51.100;6.814;2024-03-17T00:54:47;6.70;98.20
4374;DHT22;2201;51.100;6.814;2024-03-17T00:57:13;6.70;98.20
4374;DHT22;2201;51.100;6.814;2024-03-17T00:59:39;6.80;98.20
4374;DHT22;2201;51.100;6.814;2024-03-17T01:02:06;6.80;98.20
4374;DHT22;2201;51.100;6.814;2024-03-17T01:04:32;6.80;98.20
4374;DHT22;2201;51.100;6.814;2024-03-17T01:06:59;6.80;98.20
4374;DHT22;2201;51.100;6.814;2024-03-17T01:09:26;6.80;98.20
4374;DHT22;2201;51.100;6.814;2024-03-17T01:11:53;6.80;98.20
4374;DHT22;2201;51.100;6.814;2024-03-17T01:14:18;6.80;98.20
4374;DHT22;2201;51.100;6.814;2024-03-17T01:16:45;6.80;98.20
4374;DHT22;2201;51.100;6.814;2024-03-17T01:19:11;6.80;98.20
4374;DHT22;2201;51.100;6.814;2024-03-17T01:21:38;6.80;98.20
4374;DHT22;2201;51.100;6.814;2024-03-17T01:24:04;6.80;98.20
4374;DHT22;2201;51.100;6.814;2024-03-17T01:26:32;6.80;98.20
4374;DHT22;2201;51.100;6.814;2024-03-17T01:28:57;6.80;98.20
4374;DHT22;2201;51.100;6.814;2024-03-17T01:36:27;6.80;98.20
4374;DHT22;2201;51.100;6.814;2024-03-17T01:38:54;6.70;98.20
4374;DHT22;2201;51.100;6.814;2024-03-17T01:41:20;6.80;98.20
4374;DHT22;2201;51.100;6.814;2024-03-17T01:43:48;6.80;98.20
4374;DHT22;2201;51.100;6.814;2024-03-17T01:46:16;6.80;98.20
4374;DHT22;2201;51.100;6.814;2024-03-17T01:48:44;6.70;98.20
4374;DHT22;2201;51.100;6.814;2024-03-17T01:51:11;6.70;98.20
4374;DHT22;2201;51.100;6.814;2024-03-17T01:53:40;6.70;98.20
4374;DHT22;2201;51.100;6.814;2024-03-17T01:56:07;6.70;98.20
4374;DHT22;2201;51.100;6.814;2024-03-17T01:58:36;6.70;98.20
4374;DHT22;2201;51.100;6.814;2024-03-17T02:01:03;6.70;98.20
4374;DHT22;2201;51.100;6.814;2024-03-17T02:03:30;6.60;98.20
4374;DHT22;2201;51.100;6.814;2024-03-17T02:05:57;6.60;98.20
4374;DHT22;2201;51.100;6.814;2024-03-17T02:08:24;6.60;98.20
4374;DHT22;2201;51.100;6.814;2024-03-17T02:10:53;6.50;98.20
4374;DHT22;2201;51.100;6.814;2024-03-17T02:13:19;6.50;98.20
4374;DHT22;2201;51.100;6.814;2024-03-17T02:15:46;6.40;98.20
4374;DHT22;2201;51.100;6.814;2024-03-17T02:18:13;6.40;98.20
4374;DHT22;2201;51.100;6.814;2024-03-17T02:20:40;6.40;98.20
4374;DHT22;2201;51.100;6.814;2024-03-17T02:23:25;6.30;98.20
4374;DHT22;2201;51.100;6.814;2024-03-17T02:25:52;6.30;98.20
4374;DHT22;2201;51.100;6.814;2024-03-17T02:28:18;6.20;98.20
4374;DHT22;2201;51.100;6.814;2024-03-17T02:30:45;6.20;98.20
4374;DHT22;2201;51.100;6.814;2024-03-17T02:33:11;6.20;98.20
4374;DHT22;2201;51.100;6.814;2024-03-17T02:35:37;6.10;98.20
4374;DHT22;2201;51.100;6.814;2024-03-17T02:38:03;6.10;98.20
4374;DHT22;2201;51.100;6.814;2024-03-17T02:40:31;6.10;98.20
4374;DHT22;2201;51.100;6.814;2024-03-17T02:42:57;6.10;98.20
4374;DHT22;2201;51.100;6.814;2024-03-17T02:45:26;6.00;98.20
4374;DHT22;2201;51.100;6.814;2024-03-17T02:47:52;6.00;98.20
4374;DHT22;2201;51.100;6.814;2024-03-17T02:50:19;6.00;98.20
4374;DHT22;2201;51.100;6.814;2024-03-17T02:52:46;6.00;98.20
4374;DHT22;2201;51.100;6.814;2024-03-17T02:55:13;6.00;98.20
4374;DHT22;2201;51.100;6.814;2024-03-17T02:57:41;5.90;98.20
4374;DHT22;2201;51.100;6.814;2024-03-17T03:00:09;5.90;98.20
4374;DHT22;2201;51.100;6.814;2024-03-17T03:02:38;5.90;98.20
4374;DHT22;2201;51.100;6.814;2024-03-17T03:05:06;5.90;98.20
4374;DHT22;2201;51.100;6.814;2024-03-17T03:07:33;5.80;98.20
4374;DHT22;2201;51.100;6.814;2024-03-17T03:09:59;5.80;98.20
4374;DHT22;2201;51.100;6.814;2024-03-17T03:12:26;5.80;98.20
4374;DHT22;2201;51.100;6.814;2024-03-17T03:14:54;5.80;98.20
4374;DHT22;2201;51.100;6.814;2024-03-17T03:17:21;5.80;98.20
4374;DHT22;2201;51.100;6.814;2024-03-17T03:19:49;5.80;98.20
4374;DHT22;2201;51.100;6.814;2024-03-17T03:22:16;5.80;98.20
4374;DHT22;2201;51.100;6.814;2024-03-17T03:24:43;5.80;98.20
4374;DHT22;2201;51.100;6.814;2024-03-17T03:27:09;5.80;98.20
4374;DHT22;2201;51.100;6.814;2024-03-17T03:29:36;5.80;98.20
4374;DHT22;2201;51.100;6.814;2024-03-17T03:32:05;5.80;98.20
4374;DHT22;2201;51.100;6.814;2024-03-17T03:34:33;5.80;98.20
4374;DHT22;2201;51.100;6.814;2024-03-17T03:37:00;5.80;98.20
4374;DHT22;2201;51.100;6.814;2024-03-17T03:39:27;5.80;98.20
4374;DHT22;2201;51.100;6.814;2024-03-17T03:41:57;5.80;98.20
4374;DHT22;2201;51.100;6.814;2024-03-17T03:44:24;5.80;98.20
4374;DHT22;2201;51.100;6.814;2024-03-17T03:46:50;5.80;98.20
4374;DHT22;2201;51.100;6.814;2024-03-17T03:49:19;5.70;98.20
4374;DHT22;2201;51.100;6.814;2024-03-17T03:51:46;5.70;98.20
4374;DHT22;2201;51.100;6.814;2024-03-17T03:54:13;5.80;98.20
4374;DHT22;2201;51.100;6.814;2024-03-17T03:56:40;5.70;98.20
4374;DHT22;2201;51.100;6.814;2024-03-17T03:59:07;5.70;98.20
4374;DHT22;2201;51.100;6.814;2024-03-17T04:01:33;5.70;98.20
4374;DHT22;2201;51.100;6.814;2024-03-17T04:04:00;5.70;98.20
4374;DHT22;2201;51.100;6.814;2024-03-17T04:06:30;5.70;98.20
4374;DHT22;2201;51.100;6.814;2024-03-17T04:08:57;5.70;98.20
4374;DHT22;2201;51.100;6.814;2024-03-17T04:11:23;5.70;98.20
4374;DHT22;2201;51.100;6.814;2024-03-17T04:13:50;5.70;98.20
4374;DHT22;2201;51.100;6.814;2024-03-17T04:16:17;5.70;98.20
4374;DHT22;2201;51.100;6.814;2024-03-17T04:18:44;5.80;98.20
4374;DHT22;2201;51.100;6.814;2024-03-17T04:21:10;5.80;98.20
4374;DHT22;2201;51.100;6.814;2024-03-17T04:23:38;5.80;98.20
4374;DHT22;2201;51.100;6.814;2024-03-17T04:26:04;5.80;98.20
4374;DHT22;2201;51.100;6.814;2024-03-17T04:28:33;5.80;98.20
4374;DHT22;2201;51.100;6.814;2024-03-17T04:31:04;5.90;98.20
4374;DHT22;2201;51.100;6.814;2024-03-17T04:33:31;5.90;98.20
4374;DHT22;2201;51.100;6.814;2024-03-17T04:35:58;5.90;98.20
4374;DHT22;2201;51.100;6.814;2024-03-17T04:38:25;6.00;98.20
4374;DHT22;2201;51.100;6.814;2024-03-17T04:40:54;6.00;98.20
4374;DHT22;2201;51.100;6.814;2024-03-17T04:43:30;6.00;98.20
4374;DHT22;2201;51.100;6.814;2024-03-17T04:46:02;6.00;98.20
4374;DHT22;2201;51.100;6.814;2024-03-17T04:48:30;6.00;98.20
4374;DHT22;2201;51.100;6.814;2024-03-17T04:50:57;6.10;98.20
4374;DHT22;2201;51.100;6.814;2024-03-17T04:53:24;6.10;98.20
4374;DHT22;2201;51.100;6.814;2024-03-17T04:56:02;6.10;98.20
4374;DHT22;2201;51.100;6.814;2024-03-17T04:58:30;6.10;98.20
4374;DHT22;2201;51.100;6.814;2024-03-17T05:00:57;6.10;98.20
4374;DHT22;2201;51.100;6.814;2024-03-17T05:03:23;6.10;98.20
4374;DHT22;2201;51.100;6.814;2024-03-17T05:05:58;6.10;98.20
4374;DHT22;2201;51.100;6.814;2024-03-17T05:08:26;6.10;98.20
4374;DHT22;2201;51.100;6.814;2024-03-17T05:10:56;6.10;98.20
4374;DHT22;2201;51.100;6.814;2024-03-17T05:13:24;6.10;98.20
4374;DHT22;2201;51.100;6.814;2024-03-17T05:15:51;6.10;98.20
4374;DHT22;2201;51.100;6.814;2024-03-17T05:18:18;6.10;98.20
4374;DHT22;2201;51.100;6.814;2024-03-17T05:20:45;6.10;98.20
4374;DHT22;2201;51.100;6.814;2024-03-17T05:23:13;6.10;98.20
4374;DHT22;2201;51.100;6.814;2024-03-17T05:25:40;6.10;98.20
4374;DHT22;2201;51.100;6.814;2024-03-17T05:28:07;6.10;98.20
4374;DHT22;2201;51.100;6.814;2024-03-17T05:30:37;6.10;98.20
4374;DHT22;2201;51.100;6.814;2024-03-17T05:33:06;6.10;98.20
4374;DHT22;2201;51.100;6.814;2024-03-17T05:35:33;6.10;98.20
4374;DHT22;2201;51.100;6.814;2024-03-17T05:37:59;6.00;98.20
4374;DHT22;2201;51.100;6.814;2024-03-17T05:40:26;6.00;98.20
4374;DHT22;2201;51.100;6.814;2024-03-17T05:42:56;6.00;98.20
4374;DHT22;2201;51.100;6.814;2024-03-17T05:45:23;6.00;98.20
4374;DHT22;2201;51.100;6.814;2024-03-17T05:47:51;5.90;98.20
4374;DHT22;2201;51.100;6.814;2024-03-17T05:50:17;5.90;98.20
4374;DHT22;2201;51.100;6.814;2024-03-17T05:52:44;5.90;98.20
4374;DHT22;2201;51.100;6.814;2024-03-17T05:55:13;5.90;98.20
4374;DHT22;2201;51.100;6.814;2024-03-17T05:57:41;5.90;98.20
4374;DHT22;2201;51.100;6.814;2024-03-17T06:00:09;5.90;98.20
4374;DHT22;2201;51.100;6.814;2024-03-17T06:02:39;5.90;98.20
4374;DHT22;2201;51.100;6.814;2024-03-17T06:05:08;5.90;98.20
4374;DHT22;2201;51.100;6.814;2024-03-17T06:07:37;5.90;98.20
4374;DHT22;2201;51.100;6.814;2024-03-17T06:10:05;5.90;98.20
4374;DHT22;2201;51.100;6.814;2024-03-17T06:12:32;5.90;98.20
4374;DHT22;2201;51.100;6.814;2024-03-17T06:14:59;5.90;98.20
4374;DHT22;2201;51.100;6.814;2024-03-17T06:17:27;5.90;98.20
4374;DHT22;2201;51.100;6.814;2024-03-17T06:19:54;5.90;98.20
4374;DHT22;2201;51.100;6.814;2024-03-17T06:22:22;5.90;98.20
4374;DHT22;2201;51.100;6.814;2024-03-17T06:24:49;6.00;98.20
4374;DHT22;2201;51.100;6.814;2024-03-17T06:27:16;6.00;98.20
4374;DHT22;2201;51.100;6.814;2024-03-17T06:29:43;6.00;98.20
4374;DHT22;2201;51.100;6.814;2024-03-17T06:32:11;6.10;98.20
4374;DHT22;2201;51.100;6.814;2024-03-17T06:34:38;6.10;98.20
4374;DHT22;2201;51.100;6.814;2024-03-17T06:37:04;6.20;98.20
4374;DHT22;2201;51.100;6.814;2024-03-17T06:39:32;6.20;98.20
4374;DHT22;2201;51.100;6.814;2024-03-17T06:42:01;6.30;98.20
4374;DHT22;2201;51.100;6.814;2024-03-17T06:44:28;6.30;98.20
4374;DHT22;2201;51.100;6.814;2024-03-17T06:46:56;6.40;98.20
4374;DHT22;2201;51.100;6.814;2024-03-17T06:49:22;6.40;98.20
4374;DHT22;2201;51.100;6.814;2024-03-17T06:51:49;6.50;98.20
4374;DHT22;2201;51.100;6.814;2024-03-17T06:54:16;6.50;98.20
4374;DHT22;2201;51.100;6.814;2024-03-17T06:56:45;6.60;98.20
4374;DHT22;2201;51.100;6.814;2024-03-17T06:59:11;6.60;98.20
4374;DHT22;2201;51.100;6.814;2024-03-17T07:01:38;6.60;98.20
4374;DHT22;2201;51.100;6.814;2024-03-17T07:04:05;6.60;98.20
4374;DHT22;2201;51.100;6.814;2024-03-17T07:06:32;6.60;98.20
4374;DHT22;2201;51.100;6.814;2024-03-17T07:08:59;6.60;98.20
4374;DHT22;2201;51.100;6.814;2024-03-17T07:11:25;6.60;98.20
4374;DHT22;2201;51.100;6.814;2024-03-17T07:13:53;6.70;98.20
4374;DHT22;2201;51.100;6.814;2024-03-17T07:16:20;6.70;98.20
4374;DHT22;2201;51.100;6.814;2024-03-17T07:18:50;6.70;98.20
4374;DHT22;2201;51.100;6.814;2024-03-17T07:21:18;6.80;98.20
4374;DHT22;2201;51.100;6.814;2024-03-17T07:23:45;6.80;98.20
4374;DHT22;2201;51.100;6.814;2024-03-17T07:26:11;6.90;98.20
4374;DHT22;2201;51.100;6.814;2024-03-17T07:28:39;7.10;98.20
4374;DHT22;2201;51.100;6.814;2024-03-17T07:31:09;7.30;98.20
4374;DHT22;2201;51.100;6.814;2024-03-17T07:33:37;7.60;98.20
4374;DHT22;2201;51.100;6.814;2024-03-17T07:36:04;7.80;98.20
4374;DHT22;2201;51.100;6.814;2024-03-17T07:38:32;8.00;98.20
4374;DHT22;2201;51.100;6.814;2024-03-17T07:41:02;8.20;98.20
4374;DHT22;2201;51.100;6.814;2024-03-17T07:43:33;8.40;98.20
4374;DHT22;2201;51.100;6.814;2024-03-17T07:46:00;8.60;98.20
4374;DHT22;2201;51.100;6.814;2024-03-17T07:48:29;8.80;98.20
4374;DHT22;2201;51.100;6.814;2024-03-17T07:53:24;9.00;98.20
4374;DHT22;2201;51.100;6.814;2024-03-17T07:56:05;9.20;98.20
4374;DHT22;2201;51.100;6.814;2024-03-17T07:58:34;9.40;98.20
4374;DHT22;2201;51.100;6.814;2024-03-17T08:01:02;9.50;98.20
4374;DHT22;2201;51.100;6.814;2024-03-17T08:03:31;9.70;98.20
4374;DHT22;2201;51.100;6.814;2024-03-17T08:05:58;9.90;98.20
4374;DHT22;2201;51.100;6.814;2024-03-17T08:08:25;10.00;98.20
4374;DHT22;2201;51.100;6.814;2024-03-17T08:10:52;10.20;98.20
4374;DHT22;2201;51.100;6.814;2024-03-17T08:13:20;10.40;98.20
4374;DHT22;2201;51.100;6.814;2024-03-17T08:15:55;10.60;98.20
4374;DHT22;2201;51.100;6.814;2024-03-17T08:18:23;10.80;98.20
4374;DHT22;2201;51.100;6.814;2024-03-17T08:20:51;11.00;98.20
4374;DHT22;2201;51.100;6.814;2024-03-17T08:23:19;11.10;98.20
4374;DHT22;2201;51.100;6.814;2024-03-17T08:25:52;10.90;98.20
4374;DHT22;2201;51.100;6.814;2024-03-17T08:28:19;10.70;98.20
4374;DHT22;2201;51.100;6.814;2024-03-17T08:30:51;10.60;98.20
4374;DHT22;2201;51.100;6.814;2024-03-17T08:33:18;10.70;98.20
4374;DHT22;2201;51.100;6.814;2024-03-17T08:35:54;10.80;98.20
4374;DHT22;2201;51.100;6.814;2024-03-17T08:38:21;11.00;98.20
4374;DHT22;2201;51.100;6.814;2024-03-17T08:40:48;11.30;98.20
4374;DHT22;2201;51.100;6.814;2024-03-17T08:43:15;11.40;98.20
4374;DHT22;2201;51.100;6.814;2024-03-17T08:45:42;11.50;98.20
4374;DHT22;2201;51.100;6.814;2024-03-17T08:48:10;11.50;98.20
4374;DHT22;2201;51.100;6.814;2024-03-17T08:50:37;11.60;98.20
4374;DHT22;2201;51.100;6.814;2024-03-17T08:53:05;11.60;98.20
4374;DHT22;2201;51.100;6.814;2024-03-17T08:55:32;11.50;98.20
4374;DHT22;2201;51.100;6.814;2024-03-17T08:57:59;11.40;98.20
4374;DHT22;2201;51.100;6.814;2024-03-17T09:00:25;11.40;98.20
4374;DHT22;2201;51.100;6.814;2024-03-17T09:02:52;11.40;98.20
4374;DHT22;2201;51.100;6.814;2024-03-17T09:05:19;11.30;98.20
4374;DHT22;2201;51.100;6.814;2024-03-17T09:07:46;11.40;98.20
4374;DHT22;2201;51.100;6.814;2024-03-17T09:10:14;11.40;98.20
4374;DHT22;2201;51.100;6.814;2024-03-17T09:12:41;11.30;98.20
4374;DHT22;2201;51.100;6.814;2024-03-17T09:15:08;11.30;98.20
4374;DHT22;2201;51.100;6.814;2024-03-17T09:17:37;11.40;98.20
4374;DHT22;2201;51.100;6.814;2024-03-17T09:20:05;11.40;98.20
4374;DHT22;2201;51.100;6.814;2024-03-17T09:22:36;11.40;98.20
4374;DHT22;2201;51.100;6.814;2024-03-17T09:25:05;11.40;98.20
4374;DHT22;2201;51.100;6.814;2024-03-17T09:27:34;11.50;98.20
4374;DHT22;2201;51.100;6.814;2024-03-17T09:30:02;11.50;98.20
4374;DHT22;2201;51.100;6.814;2024-03-17T09:32:31;11.50;98.20
4374;DHT22;2201;51.100;6.814;2024-03-17T09:34:58;11.40;98.20
4374;DHT22;2201;51.100;6.814;2024-03-17T09:37:25;11.50;98.20
4374;DHT22;2201;51.100;6.814;2024-03-17T09:39:52;11.50;98.20
4374;DHT22;2201;51.100;6.814;2024-03-17T09:42:22;11.60;98.20
4374;DHT22;2201;51.100;6.814;2024-03-17T09:44:53;11.60;98.20
4374;DHT22;2201;51.100;6.814;2024-03-17T09:47:21;11.60;98.20
4374;DHT22;2201;51.100;6.814;2024-03-17T09:49:48;11.70;98.20
4374;DHT22;2201;51.100;6.814;2024-03-17T09:52:20;11.60;98.20
4374;DHT22;2201;51.100;6.814;2024-03-17T09:54:58;11.60;98.20
4374;DHT22;2201;51.100;6.814;2024-03-17T09:57:26;11.70;98.20
4374;DHT22;2201;51.100;6.814;2024-03-17T09:59:54;11.80;98.20
4374;DHT22;2201;51.100;6.814;2024-03-17T10:02:22;11.90;98.20
4374;DHT22;2201;51.100;6.814;2024-03-17T10:04:49;11.90;98.20
4374;DHT22;2201;51.100;6.814;2024-03-17T10:07:15;12.00;98.20
4374;DHT22;2201;51.100;6.814;2024-03-17T10:09:42;12.20;98.20
4374;DHT22;2201;51.100;6.814;2024-03-17T10:12:26;12.30;98.20
4374;DHT22;2201;51.100;6.814;2024-03-17T10:15:01;12.40;98.20
4374;DHT22;2201;51.100;6.814;2024-03-17T10:17:31;12.60;98.20
4374;DHT22;2201;51.100;6.814;2024-03-17T10:20:14;12.60;98.20
4374;DHT22;2201;51.100;6.814;2024-03-17T10:23:02;12.60;98.20
4374;DHT22;2201;51.100;6.814;2024-03-17T10:25:30;12.60;98.20
4374;DHT22;2201;51.100;6.814;2024-03-17T10:27:57;12.70;98.20
4374;DHT22;2201;51.100;6.814;2024-03-17T10:30:26;12.70;98.20
4374;DHT22;2201;51.100;6.814;2024-03-17T10:32:55;12.80;98.20
4374;DHT22;2201;51.100;6.814;2024-03-17T10:35:27;12.90;98.20
4374;DHT22;2201;51.100;6.814;2024-03-17T10:37:54;13.10;98.20
4374;DHT22;2201;51.100;6.814;2024-03-17T10:40:22;13.20;98.20
4374;DHT22;2201;51.100;6.814;2024-03-17T10:42:49;13.30;98.20
4374;DHT22;2201;51.100;6.814;2024-03-17T10:45:18;13.30;98.20
4374;DHT22;2201;51.100;6.814;2024-03-17T10:47:48;13.30;98.20
4374;DHT22;2201;51.100;6.814;2024-03-17T10:50:17;13.30;98.20
4374;DHT22;2201;51.100;6.814;2024-03-17T10:52:45;13.40;98.20
4374;DHT22;2201;51.100;6.814;2024-03-17T10:55:21;13.50;98.20
4374;DHT22;2201;51.100;6.814;2024-03-17T10:57:49;13.70;98.20
4374;DHT22;2201;51.100;6.814;2024-03-17T11:00:18;13.80;98.20
4374;DHT22;2201;51.100;6.814;2024-03-17T11:02:49;13.90;98.20
4374;DHT22;2201;51.100;6.814;2024-03-17T11:05:19;14.20;98.20
4374;DHT22;2201;51.100;6.814;2024-03-17T11:07:47;14.50;98.20
4374;DHT22;2201;51.100;6.814;2024-03-17T11:10:20;14.70;98.20
4374;DHT22;2201;51.100;6.814;2024-03-17T11:12:49;15.00;98.20
4374;DHT22;2201;51.100;6.814;2024-03-17T11:15:38;15.30;98.20
4374;DHT22;2201;51.100;6.814;2024-03-17T11:18:33;15.60;97.80
4374;DHT22;2201;51.100;6.814;2024-03-17T11:21:01;15.80;96.50
4374;DHT22;2201;51.100;6.814;2024-03-17T11:23:33;15.80;95.90
4374;DHT22;2201;51.100;6.814;2024-03-17T11:26:06;15.90;95.70
4374;DHT22;2201;51.100;6.814;2024-03-17T11:28:47;16.00;95.80
4374;DHT22;2201;51.100;6.814;2024-03-17T11:31:43;16.00;95.90
4374;DHT22;2201;51.100;6.814;2024-03-17T11:34:32;15.90;96.60
4374;DHT22;2201;51.100;6.814;2024-03-17T11:37:01;15.90;94.20
4374;DHT22;2201;51.100;6.814;2024-03-17T11:39:47;15.90;95.70
4374;DHT22;2201;51.100;6.814;2024-03-17T11:42:15;15.90;96.50
4374;DHT22;2201;51.100;6.814;2024-03-17T11:44:42;16.00;97.20
4374;DHT22;2201;51.100;6.814;2024-03-17T11:47:08;16.20;96.80
4374;DHT22;2201;51.100;6.814;2024-03-17T11:49:37;16.00;95.10
4374;DHT22;2201;51.100;6.814;2024-03-17T11:52:04;15.90;96.00
4374;DHT22;2201;51.100;6.814;2024-03-17T11:54:33;15.80;96.20
4374;DHT22;2201;51.100;6.814;2024-03-17T11:57:03;15.80;96.30
4374;DHT22;2201;51.100;6.814;2024-03-17T11:59:33;15.80;96.50
4374;DHT22;2201;51.100;6.814;2024-03-17T12:01:59;15.90;96.90
4374;DHT22;2201;51.100;6.814;2024-03-17T12:04:27;16.00;95.90
4374;DHT22;2201;51.100;6.814;2024-03-17T12:06:56;16.00;95.80
4374;DHT22;2201;51.100;6.814;2024-03-17T12:09:24;16.00;96.20
4374;DHT22;2201;51.100;6.814;2024-03-17T12:11:57;16.00;95.20
4374;DHT22;2201;51.100;6.814;2024-03-17T12:14:24;15.90;94.60
4374;DHT22;2201;51.100;6.814;2024-03-17T12:16:51;15.90;95.00
4374;DHT22;2201;51.100;6.814;2024-03-17T12:19:19;15.90;95.70
4374;DHT22;2201;51.100;6.814;2024-03-17T12:21:49;16.00;95.00
4374;DHT22;2201;51.100;6.814;2024-03-17T12:24:19;16.00;95.00
4374;DHT22;2201;51.100;6.814;2024-03-17T12:26:47;15.90;94.80
4374;DHT22;2201;51.100;6.814;2024-03-17T12:29:24;15.80;94.70
4374;DHT22;2201;51.100;6.814;2024-03-17T12:31:52;15.60;94.70
4374;DHT22;2201;51.100;6.814;2024-03-17T12:34:18;15.50;95.60
4374;DHT22;2201;51.100;6.814;2024-03-17T12:36:59;15.60;96.00
4374;DHT22;2201;51.100;6.814;2024-03-17T12:39:28;15.50;95.40
4374;DHT22;2201;51.100;6.814;2024-03-17T12:42:03;15.40;96.40
4374;DHT22;2201;51.100;6.814;2024-03-17T12:44:29;15.50;95.40
4374;DHT22;2201;51.100;6.814;2024-03-17T12:47:00;15.50;94.90
4374;DHT22;2201;51.100;6.814;2024-03-17T12:49:26;15.50;95.20
4374;DHT22;2201;51.100;6.814;2024-03-17T12:51:53;15.60;94.50
4374;DHT22;2201;51.100;6.814;2024-03-17T12:54:23;15.60;94.50
4374;DHT22;2201;51.100;6.814;2024-03-17T12:57:03;15.60;94.80
4374;DHT22;2201;51.100;6.814;2024-03-17T12:59:48;15.60;95.60
4374;DHT22;2201;51.100;6.814;2024-03-17T13:02:33;15.50;94.10
4374;DHT22;2201;51.100;6.814;2024-03-17T13:05:17;15.30;94.40
4374;DHT22;2201;51.100;6.814;2024-03-17T13:07:44;15.30;94.80
4374;DHT22;2201;51.100;6.814;2024-03-17T13:10:15;15.30;94.40
4374;DHT22;2201;51.100;6.814;2024-03-17T13:12:43;15.30;95.50
4374;DHT22;2201;51.100;6.814;2024-03-17T13:15:24;15.10;95.60
4374;DHT22;2201;51.100;6.814;2024-03-17T13:19:45;15.10;96.50
4374;DHT22;2201;51.100;6.814;2024-03-17T13:21:45;15.10;95.50
4374;DHT22;2201;51.100;6.814;2024-03-17T13:24:14;15.10;96.60
4374;DHT22;2201;51.100;6.814;2024-03-17T13:26:54;15.10;95.60
4374;DHT22;2201;51.100;6.814;2024-03-17T13:29:33;15.10;95.40
4374;DHT22;2201;51.100;6.814;2024-03-17T13:32:05;15.10;95.80
4374;DHT22;2201;51.100;6.814;2024-03-17T13:37:49;15.10;96.60
4374;DHT22;2201;51.100;6.814;2024-03-17T13:40:22;15.10;96.70
4374;DHT22;2201;51.100;6.814;2024-03-17T13:42:50;15.10;97.50
4374;DHT22;2201;51.100;6.814;2024-03-17T13:45:21;15.10;97.50
4374;DHT22;2201;51.100;6.814;2024-03-17T13:47:50;15.20;97.70
4374;DHT22;2201;51.100;6.814;2024-03-17T13:50:18;15.30;97.30
4374;DHT22;2201;51.100;6.814;2024-03-17T13:52:45;15.20;97.30
4374;DHT22;2201;51.100;6.814;2024-03-17T13:55:14;15.20;97.50
4374;DHT22;2201;51.100;6.814;2024-03-17T13:57:46;15.20;97.70
4374;DHT22;2201;51.100;6.814;2024-03-17T14:00:22;15.20;97.70
4374;DHT22;2201;51.100;6.814;2024-03-17T14:02:52;15.20;97.50
4374;DHT22;2201;51.100;6.814;2024-03-17T14:05:23;15.20;97.20
4374;DHT22;2201;51.100;6.814;2024-03-17T14:07:52;15.20;97.90
4374;DHT22;2201;51.100;6.814;2024-03-17T14:10:19;15.20;97.70
4374;DHT22;2201;51.100;6.814;2024-03-17T14:12:46;15.30;97.70
4374;DHT22;2201;51.100;6.814;2024-03-17T14:15:14;15.40;98.20
4374;DHT22;2201;51.100;6.814;2024-03-17T14:17:43;15.50;97.40
4374;DHT22;2201;51.100;6.814;2024-03-17T14:20:12;15.50;97.60
4374;DHT22;2201;51.100;6.814;2024-03-17T14:22:45;15.60;96.70
4374;DHT22;2201;51.100;6.814;2024-03-17T14:25:24;15.60;97.60
4374;DHT22;2201;51.100;6.814;2024-03-17T14:27:51;15.60;97.30
4374;DHT22;2201;51.100;6.814;2024-03-17T14:30:19;15.50;96.60
4374;DHT22;2201;51.100;6.814;2024-03-17T14:32:46;15.50;97.20
4374;DHT22;2201;51.100;6.814;2024-03-17T14:35:16;15.50;97.90
4374;DHT22;2201;51.100;6.814;2024-03-17T14:37:44;15.60;96.70
4374;DHT22;2201;51.100;6.814;2024-03-17T14:40:14;15.60;96.20
4374;DHT22;2201;51.100;6.814;2024-03-17T14:42:54;15.50;97.00
4374;DHT22;2201;51.100;6.814;2024-03-17T14:45:22;15.50;96.60
4374;DHT22;2201;51.100;6.814;2024-03-17T14:47:49;15.50;96.70
4374;DHT22;2201;51.100;6.814;2024-03-17T14:50:19;15.50;97.30
4374;DHT22;2201;51.100;6.814;2024-03-17T14:52:46;15.60;97.40
4374;DHT22;2201;51.100;6.814;2024-03-17T14:55:14;15.50;96.20
4374;DHT22;2201;51.100;6.814;2024-03-17T14:57:41;15.40;95.90
4374;DHT22;2201;51.100;6.814;2024-03-17T15:00:09;15.50;96.80
4374;DHT22;2201;51.100;6.814;2024-03-17T15:02:41;15.60;96.50
4374;DHT22;2201;51.100;6.814;2024-03-17T15:05:08;15.60;96.00
4374;DHT22;2201;51.100;6.814;2024-03-17T15:07:36;15.60;96.20
4374;DHT22;2201;51.100;6.814;2024-03-17T15:10:05;15.60;96.30
4374;DHT22;2201;51.100;6.814;2024-03-17T15:12:34;15.60;96.20
4374;DHT22;2201;51.100;6.814;2024-03-17T15:15:01;15.50;96.50
4374;DHT22;2201;51.100;6.814;2024-03-17T15:17:28;15.50;97.30
4374;DHT22;2201;51.100;6.814;2024-03-17T15:19:55;15.60;96.70
4374;DHT22;2201;51.100;6.814;2024-03-17T15:22:22;15.60;96.80
4374;DHT22;2201;51.100;6.814;2024-03-17T15:24:50;15.70;96.70
4374;DHT22;2201;51.100;6.814;2024-03-17T15:27:17;15.70;97.50
4374;DHT22;2201;51.100;6.814;2024-03-17T15:29:45;15.60;96.80
4374;DHT22;2201;51.100;6.814;2024-03-17T15:32:11;15.60;97.30
4374;DHT22;2201;51.100;6.814;2024-03-17T15:35:05;15.50;97.60
4374;DHT22;2201;51.100;6.814;2024-03-17T15:37:46;15.40;98.00
4374;DHT22;2201;51.100;6.814;2024-03-17T15:40:15;15.50;98.20
4374;DHT22;2201;51.100;6.814;2024-03-17T15:42:43;15.50;97.50
4374;DHT22;2201;51.100;6.814;2024-03-17T15:45:11;15.50;97.90
4374;DHT22;2201;51.100;6.814;2024-03-17T15:47:38;15.50;98.10
4374;DHT22;2201;51.100;6.814;2024-03-17T15:50:05;15.40;97.90
4374;DHT22;2201;51.100;6.814;2024-03-17T15:52:32;15.40;98.20
4374;DHT22;2201;51.100;6.814;2024-03-17T15:55:00;15.40;98.20
4374;DHT22;2201;51.100;6.814;2024-03-17T15:57:29;15.50;98.20
4374;DHT22;2201;51.100;6.814;2024-03-17T15:59:56;15.40;98.20
4374;DHT22;2201;51.100;6.814;2024-03-17T16:02:25;15.50;97.70
4374;DHT22;2201;51.100;6.814;2024-03-17T16:04:53;15.50;98.10
4374;DHT22;2201;51.100;6.814;2024-03-17T16:07:21;15.50;97.80
4374;DHT22;2201;51.100;6.814;2024-03-17T16:09:50;15.50;98.00
4374;DHT22;2201;51.100;6.814;2024-03-17T16:12:18;15.50;97.80
4374;DHT22;2201;51.100;6.814;2024-03-17T16:14:48;15.50;97.90
4374;DHT22;2201;51.100;6.814;2024-03-17T16:17:15;15.50;97.80
4374;DHT22;2201;51.100;6.814;2024-03-17T16:19:42;15.50;97.30
4374;DHT22;2201;51.100;6.814;2024-03-17T16:22:11;15.60;98.00
4374;DHT22;2201;51.100;6.814;2024-03-17T16:24:41;15.50;98.00
4374;DHT22;2201;51.100;6.814;2024-03-17T16:27:09;15.50;96.70
4374;DHT22;2201;51.100;6.814;2024-03-17T16:29:35;15.50;97.20
4374;DHT22;2201;51.100;6.814;2024-03-17T16:32:06;15.40;96.90